Aérodrome :
LOGIN :

S'inscrire | Disclaimer

   EN    FR    IT 

 










Légende :    VFR   VFR Marginal   IFR   IFR Intensif   IFR Très Intensif
Visi : 
Plafond : 
>= 8 km
>= 3000ft
5 à 8 km
1000 à 3000 ft
1500m à 5 km
500 à 1000 ft
800 à 1500m
200 à 500 ft
< 800m
< 200 ft
Symboles :   Orages  Brouillard  Fortes neiges  Fortes précipitations  Vent > 20 kt
SIGMETs :   Divers  Orages  Givrage  Turbulence  Onde Orograph.  Cendres Volcan.







- Altitude de l'aérodrome : 215 ft
- Code IATA : ABZ
- Voir les cartes d'approche


EGPD - Aberdeen / Dyce

DERNIER METAR :
  • 220620Z AUTO 16007KT 2600 BR OVC003 08/08 Q1003

METARs EXPIRÉS :
  • 220550Z AUTO 12005KT 3900 BR BKN003 08/07 Q1003
  • 220520Z AUTO VRB02KT 4300 HZ NCD 08/08 Q1003 TEMPO 6000
  • 220450Z AUTO VRB03KT 4500 BR FEW006 08/07 Q1003
  • 220420Z 11005KT 070V160 6000 BKN006 08/07 Q1004 NOSIG
  • 220350Z AUTO VRB02KT 6000 BKN005 08/07 Q1005

TAF TAF EGPD
Valide du 22 à 06h jusqu'au 23 à 06h UTC


220501Z 2206/2306 16009KT 7000 FEW005
TEMPO 2206/2210 4000 BR BKN004
PROB30
TEMPO 2206/2210 2000 BKN001
BECMG 2208/2211 9999
TEMPO 2210/2214 6000 RA
BECMG 2212/2215 23010KT
Pas de NOTAMs connus pour ce terrain.
2 SIGMETs publiés pour la FIR Scottish (EGPX) :
 
Orages fréquents avec grêle
EGPX SIGMET 02 VALID 220700/221100 EGRR
EGPX SCOTTISH FIR FRQ TSGR FCST WI N5948 W00115 - N5838 E00152 - N5806 E00140 - N5906 W00132 - N5948 W00115 TOP FL320 MOV NNE 15KT WKN=
Orages fréquents avec grêle
EGPX SIGMET 01 VALID 220300/220700 EGRR
EGPX SCOTTISH FIR FRQ TSGR FCST WI N5727 W00147 - N5647 E00209 - N5531 E00051 - N5607 W00233 - N5727 W00147 TOP FL320 MOV NNE 15KT NC=



MET'MAP, la Météo Aéronautique d'un coup d'oeil ! - Copyright ORBIFLY Décembre 2007 - Disclaimer

ORBIFLY MET'MAP TEAM :

Programmation & Développement : Alexandra Zaïnal
Conception & Développement : Baudouin d'Aumeries
Co-Programmation & Développement : Marc-Olivier Méhu
Soutien technique & logistique : Manuel Goepfert

Contact : metmap@orbifly.com




SOURCES & CREDITS :

   NOAA